sensor_id;sensor_type;location;lat;lon;timestamp;noise_LAeq;noise_LA_min;noise_LA_max;noise_LA01;noise_LA95
40465;Laerm;30489;48.982;8.394;2023-07-13T00:00:41;41.32;39.92;44.07;;
40465;Laerm;30489;48.982;8.394;2023-07-13T00:02:52;41.34;40.23;42.47;;
40465;Laerm;30489;48.982;8.394;2023-07-13T00:05:05;41.34;40.03;42.59;;
40465;Laerm;30489;48.982;8.394;2023-07-13T00:07:16;41.33;39.92;42.53;;
40465;Laerm;30489;48.982;8.394;2023-07-13T00:09:29;41.33;39.92;42.53;;
40465;Laerm;30489;48.982;8.394;2023-07-13T00:11:40;41.30;40.03;42.35;;
40465;Laerm;30489;48.982;8.394;2023-07-13T00:13:51;41.30;40.03;42.71;;
40465;Laerm;30489;48.982;8.394;2023-07-13T00:16:01;41.28;39.70;42.41;;
40465;Laerm;30489;48.982;8.394;2023-07-13T00:18:11;41.23;39.81;42.76;;
40465;Laerm;30489;48.982;8.394;2023-07-13T00:20:22;41.23;39.70;42.29;;
40465;Laerm;30489;48.982;8.394;2023-07-13T00:22:32;41.25;39.70;42.35;;
40465;Laerm;30489;48.982;8.394;2023-07-13T00:24:43;41.30;39.92;42.35;;
40465;Laerm;30489;48.982;8.394;2023-07-13T00:26:53;41.29;39.92;42.59;;
40465;Laerm;30489;48.982;8.394;2023-07-13T00:29:04;41.27;40.03;42.47;;
40465;Laerm;30489;48.982;8.394;2023-07-13T00:31:16;41.25;39.81;42.42;;
40465;Laerm;30489;48.982;8.394;2023-07-13T00:33:29;41.25;39.81;42.35;;
40465;Laerm;30489;48.982;8.394;2023-07-13T00:35:39;41.26;39.81;42.53;;
40465;Laerm;30489;48.982;8.394;2023-07-13T00:37:51;41.19;39.21;42.47;;
40465;Laerm;30489;48.982;8.394;2023-07-13T00:40:04;41.15;40.03;42.41;;
40465;Laerm;30489;48.982;8.394;2023-07-13T00:42:15;41.14;39.92;42.29;;
40465;Laerm;30489;48.982;8.394;2023-07-13T00:44:26;41.16;39.92;42.41;;
40465;Laerm;30489;48.982;8.394;2023-07-13T00:46:36;41.21;39.92;42.53;;
40465;Laerm;30489;48.982;8.394;2023-07-13T00:48:47;41.21;39.81;42.47;;
40465;Laerm;30489;48.982;8.394;2023-07-13T00:50:58;41.21;39.81;43.44;;
40465;Laerm;30489;48.982;8.394;2023-07-13T00:53:09;41.23;39.46;42.41;;
40465;Laerm;30489;48.982;8.394;2023-07-13T00:55:21;41.24;39.81;42.41;;
40465;Laerm;30489;48.982;8.394;2023-07-13T00:57:32;41.24;39.81;42.47;;
40465;Laerm;30489;48.982;8.394;2023-07-13T00:59:45;41.26;39.92;43.34;;
40465;Laerm;30489;48.982;8.394;2023-07-13T01:01:57;41.23;39.92;44.27;;
40465;Laerm;30489;48.982;8.394;2023-07-13T01:04:07;41.20;39.81;42.59;;
40465;Laerm;30489;48.982;8.394;2023-07-13T01:06:18;41.25;39.58;42.41;;
40465;Laerm;30489;48.982;8.394;2023-07-13T01:08:28;41.23;39.81;42.35;;
40465;Laerm;30489;48.982;8.394;2023-07-13T01:10:39;41.20;39.92;42.41;;
40465;Laerm;30489;48.982;8.394;2023-07-13T01:12:49;41.14;39.70;42.29;;
40465;Laerm;30489;48.982;8.394;2023-07-13T01:15:00;41.10;39.70;44.34;;
40465;Laerm;30489;48.982;8.394;2023-07-13T01:17:10;41.11;39.92;43.19;;
40465;Laerm;30489;48.982;8.394;2023-07-13T01:21:39;41.13;39.70;42.29;;
40465;Laerm;30489;48.982;8.394;2023-07-13T01:23:52;41.04;39.46;42.22;;
40465;Laerm;30489;48.982;8.394;2023-07-13T01:26:02;41.00;39.70;42.22;;
40465;Laerm;30489;48.982;8.394;2023-07-13T01:28:13;40.94;39.21;42.09;;
40465;Laerm;30489;48.982;8.394;2023-07-13T01:30:23;40.93;39.58;42.16;;
40465;Laerm;30489;48.982;8.394;2023-07-13T01:32:33;40.99;39.46;42.29;;
40465;Laerm;30489;48.982;8.394;2023-07-13T01:34:44;41.01;39.58;42.09;;
40465;Laerm;30489;48.982;8.394;2023-07-13T01:36:54;40.94;39.58;42.29;;
40465;Laerm;30489;48.982;8.394;2023-07-13T01:39:04;40.90;39.34;42.29;;
40465;Laerm;30489;48.982;8.394;2023-07-13T01:41:14;40.94;39.46;42.03;;
40465;Laerm;30489;48.982;8.394;2023-07-13T01:43:25;40.98;39.34;42.16;;
40465;Laerm;30489;48.982;8.394;2023-07-13T01:45:35;40.84;39.34;42.16;;
40465;Laerm;30489;48.982;8.394;2023-07-13T01:47:45;40.85;39.34;42.29;;
40465;Laerm;30489;48.982;8.394;2023-07-13T01:49:56;40.81;39.08;42.16;;
40465;Laerm;30489;48.982;8.394;2023-07-13T01:52:06;40.72;39.21;44.43;;
40465;Laerm;30489;48.982;8.394;2023-07-13T01:54:16;40.80;39.21;43.39;;
40465;Laerm;30489;48.982;8.394;2023-07-13T01:56:27;40.80;39.34;42.03;;
40465;Laerm;30489;48.982;8.394;2023-07-13T01:58:37;40.84;39.34;42.53;;
40465;Laerm;30489;48.982;8.394;2023-07-13T02:00:48;40.86;39.34;42.22;;
40465;Laerm;30489;48.982;8.394;2023-07-13T02:02:58;40.86;39.34;42.09;;
40465;Laerm;30489;48.982;8.394;2023-07-13T02:05:09;40.83;39.21;42.16;;
40465;Laerm;30489;48.982;8.394;2023-07-13T02:07:19;40.86;39.34;42.16;;
40465;Laerm;30489;48.982;8.394;2023-07-13T02:09:29;40.78;39.34;42.16;;
40465;Laerm;30489;48.982;8.394;2023-07-13T02:11:39;40.72;39.08;41.96;;
40465;Laerm;30489;48.982;8.394;2023-07-13T02:13:50;40.79;39.34;42.13;;
40465;Laerm;30489;48.982;8.394;2023-07-13T02:16:00;40.78;39.46;42.09;;
40465;Laerm;30489;48.982;8.394;2023-07-13T02:18:10;40.74;39.08;42.22;;
40465;Laerm;30489;48.982;8.394;2023-07-13T02:20:21;40.65;38.95;42.03;;
40465;Laerm;30489;48.982;8.394;2023-07-13T02:22:31;40.69;39.08;41.89;;
40465;Laerm;30489;48.982;8.394;2023-07-13T02:24:42;40.67;39.34;41.96;;
40465;Laerm;30489;48.982;8.394;2023-07-13T02:26:52;40.74;39.21;41.96;;
40465;Laerm;30489;48.982;8.394;2023-07-13T02:29:02;40.81;39.58;42.03;;
40465;Laerm;30489;48.982;8.394;2023-07-13T02:31:13;40.84;39.46;42.16;;
40465;Laerm;30489;48.982;8.394;2023-07-13T02:33:24;40.76;39.34;42.03;;
40465;Laerm;30489;48.982;8.394;2023-07-13T02:35:34;40.69;39.08;42.03;;
40465;Laerm;30489;48.982;8.394;2023-07-13T02:37:59;40.68;38.95;42.16;;
40465;Laerm;30489;48.982;8.394;2023-07-13T02:40:09;40.68;39.21;42.03;;
40465;Laerm;30489;48.982;8.394;2023-07-13T02:42:20;40.66;39.08;41.89;;
40465;Laerm;30489;48.982;8.394;2023-07-13T02:44:30;40.58;38.99;41.82;;
40465;Laerm;30489;48.982;8.394;2023-07-13T02:46:40;40.46;38.81;41.96;;
40465;Laerm;30489;48.982;8.394;2023-07-13T02:48:51;40.44;38.81;41.88;;
40465;Laerm;30489;48.982;8.394;2023-07-13T02:51:03;40.42;38.81;45.75;;
40465;Laerm;30489;48.982;8.394;2023-07-13T02:53:13;40.40;38.67;42.59;;
40465;Laerm;30489;48.982;8.394;2023-07-13T02:55:24;40.36;38.95;42.22;;
40465;Laerm;30489;48.982;8.394;2023-07-13T02:57:34;40.30;38.52;41.68;;
40465;Laerm;30489;48.982;8.394;2023-07-13T02:59:44;40.29;38.67;41.82;;
40465;Laerm;30489;48.982;8.394;2023-07-13T03:01:54;40.18;38.52;41.68;;
40465;Laerm;30489;48.982;8.394;2023-07-13T03:04:05;40.19;38.52;41.61;;
40465;Laerm;30489;48.982;8.394;2023-07-13T03:06:16;40.21;38.52;41.96;;
40465;Laerm;30489;48.982;8.394;2023-07-13T03:08:26;40.20;38.37;41.61;;
40465;Laerm;30489;48.982;8.394;2023-07-13T03:10:37;40.20;38.37;41.68;;
40465;Laerm;30489;48.982;8.394;2023-07-13T03:12:48;40.17;38.37;41.61;;
40465;Laerm;30489;48.982;8.394;2023-07-13T03:14:58;40.17;38.21;41.61;;
40465;Laerm;30489;48.982;8.394;2023-07-13T03:17:08;40.10;38.21;41.68;;
40465;Laerm;30489;48.982;8.394;2023-07-13T03:19:18;40.05;38.37;41.53;;
40465;Laerm;30489;48.982;8.394;2023-07-13T03:21:29;40.01;38.05;41.46;;
40465;Laerm;30489;48.982;8.394;2023-07-13T03:23:39;39.98;38.05;43.34;;
40465;Laerm;30489;48.982;8.394;2023-07-13T03:25:50;39.98;37.88;43.19;;
40465;Laerm;30489;48.982;8.394;2023-07-13T03:28:00;39.99;38.21;41.38;;
40465;Laerm;30489;48.982;8.394;2023-07-13T03:30:11;40.00;38.21;41.68;;
40465;Laerm;30489;48.982;8.394;2023-07-13T03:32:21;40.01;38.05;41.68;;
40465;Laerm;30489;48.982;8.394;2023-07-13T03:34:31;40.02;38.21;41.46;;
40465;Laerm;30489;48.982;8.394;2023-07-13T03:36:42;39.97;37.88;41.46;;
40465;Laerm;30489;48.982;8.394;2023-07-13T03:38:53;39.95;38.05;41.46;;
40465;Laerm;30489;48.982;8.394;2023-07-13T03:41:04;39.96;38.05;41.53;;
40465;Laerm;30489;48.982;8.394;2023-07-13T03:43:14;39.94;38.37;41.38;;
40465;Laerm;30489;48.982;8.394;2023-07-13T03:45:25;39.92;38.21;41.61;;
40465;Laerm;30489;48.982;8.394;2023-07-13T03:47:35;39.90;38.05;41.46;;
40465;Laerm;30489;48.982;8.394;2023-07-13T03:49:45;39.90;38.05;41.38;;
40465;Laerm;30489;48.982;8.394;2023-07-13T03:51:56;39.90;38.21;41.30;;
40465;Laerm;30489;48.982;8.394;2023-07-13T03:54:06;39.89;37.88;41.46;;
40465;Laerm;30489;48.982;8.394;2023-07-13T03:56:17;39.88;38.05;41.22;;
40465;Laerm;30489;48.982;8.394;2023-07-13T04:00:38;39.91;38.21;41.46;;
40465;Laerm;30489;48.982;8.394;2023-07-13T04:02:48;39.85;38.21;41.61;;
40465;Laerm;30489;48.982;8.394;2023-07-13T04:04:59;39.82;37.70;41.75;;
40465;Laerm;30489;48.982;8.394;2023-07-13T04:07:09;39.80;38.05;41.30;;
40465;Laerm;30489;48.982;8.394;2023-07-13T04:09:20;39.83;37.88;41.22;;
40465;Laerm;30489;48.982;8.394;2023-07-13T04:11:31;39.84;38.21;41.30;;
40465;Laerm;30489;48.982;8.394;2023-07-13T04:13:42;39.82;37.70;41.46;;
40465;Laerm;30489;48.982;8.394;2023-07-13T04:15:52;39.85;37.88;41.46;;
40465;Laerm;30489;48.982;8.394;2023-07-13T04:18:03;39.85;38.21;41.30;;
40465;Laerm;30489;48.982;8.394;2023-07-13T04:20:13;39.83;38.05;41.53;;
40465;Laerm;30489;48.982;8.394;2023-07-13T04:22:23;39.80;37.88;41.61;;
40465;Laerm;30489;48.982;8.394;2023-07-13T04:24:33;39.81;37.88;41.48;;
40465;Laerm;30489;48.982;8.394;2023-07-13T04:26:44;39.81;38.05;41.33;;
40465;Laerm;30489;48.982;8.394;2023-07-13T04:28:54;39.82;37.88;41.61;;
40465;Laerm;30489;48.982;8.394;2023-07-13T04:31:05;39.80;37.88;44.11;;
40465;Laerm;30489;48.982;8.394;2023-07-13T04:33:15;39.81;38.05;41.38;;
40465;Laerm;30489;48.982;8.394;2023-07-13T04:35:26;39.79;37.52;41.30;;
40465;Laerm;30489;48.982;8.394;2023-07-13T04:37:37;39.78;37.52;41.38;;
40465;Laerm;30489;48.982;8.394;2023-07-13T04:39:47;39.73;37.70;41.14;;
40465;Laerm;30489;48.982;8.394;2023-07-13T04:41:57;39.71;37.52;41.61;;
40465;Laerm;30489;48.982;8.394;2023-07-13T04:44:07;39.77;37.70;41.38;;
40465;Laerm;30489;48.982;8.394;2023-07-13T04:46:18;39.84;38.18;41.53;;
40465;Laerm;30489;48.982;8.394;2023-07-13T04:48:29;39.71;37.88;41.22;;
40465;Laerm;30489;48.982;8.394;2023-07-13T04:50:39;39.69;37.88;42.03;;
40465;Laerm;30489;48.982;8.394;2023-07-13T04:52:52;39.71;37.52;41.41;;
40465;Laerm;30489;48.982;8.394;2023-07-13T04:55:02;39.74;37.70;41.89;;
40465;Laerm;30489;48.982;8.394;2023-07-13T04:57:12;39.76;37.88;41.38;;
40465;Laerm;30489;48.982;8.394;2023-07-13T04:59:23;39.80;37.88;41.22;;
40465;Laerm;30489;48.982;8.394;2023-07-13T05:01:33;39.82;38.05;41.22;;
40465;Laerm;30489;48.982;8.394;2023-07-13T05:03:44;39.89;38.05;41.96;;
40465;Laerm;30489;48.982;8.394;2023-07-13T05:05:58;39.92;38.21;41.61;;
40465;Laerm;30489;48.982;8.394;2023-07-13T05:08:09;39.95;38.37;41.38;;
40465;Laerm;30489;48.982;8.394;2023-07-13T05:10:19;40.00;38.05;41.82;;
40465;Laerm;30489;48.982;8.394;2023-07-13T05:12:30;40.03;38.05;41.68;;
40465;Laerm;30489;48.982;8.394;2023-07-13T05:14:40;40.07;38.37;42.47;;
40465;Laerm;30489;48.982;8.394;2023-07-13T05:16:50;40.06;38.21;41.46;;
40465;Laerm;30489;48.982;8.394;2023-07-13T05:19:01;40.07;38.37;52.80;;
40465;Laerm;30489;48.982;8.394;2023-07-13T05:21:11;40.06;38.05;46.55;;
40465;Laerm;30489;48.982;8.394;2023-07-13T05:23:21;40.07;38.21;41.82;;
40465;Laerm;30489;48.982;8.394;2023-07-13T05:25:32;40.07;38.21;43.94;;
40465;Laerm;30489;48.982;8.394;2023-07-13T05:27:42;40.04;38.02;42.16;;
40465;Laerm;30489;48.982;8.394;2023-07-13T05:29:52;40.04;38.18;41.46;;
40465;Laerm;30489;48.982;8.394;2023-07-13T05:32:02;40.05;38.21;41.61;;
40465;Laerm;30489;48.982;8.394;2023-07-13T05:34:13;40.05;38.21;41.46;;
40465;Laerm;30489;48.982;8.394;2023-07-13T05:36:23;40.03;38.37;41.82;;
40465;Laerm;30489;48.982;8.394;2023-07-13T05:38:34;40.05;38.37;41.46;;
40465;Laerm;30489;48.982;8.394;2023-07-13T05:40:45;40.08;38.37;41.68;;
40465;Laerm;30489;48.982;8.394;2023-07-13T05:42:55;40.12;38.05;41.38;;
40465;Laerm;30489;48.982;8.394;2023-07-13T05:45:05;40.13;38.52;41.61;;
40465;Laerm;30489;48.982;8.394;2023-07-13T05:47:16;40.11;38.52;41.61;;
40465;Laerm;30489;48.982;8.394;2023-07-13T05:49:26;40.12;38.37;41.46;;
40465;Laerm;30489;48.982;8.394;2023-07-13T05:51:36;40.05;38.21;41.68;;
40465;Laerm;30489;48.982;8.394;2023-07-13T05:53:47;40.04;38.18;41.53;;
40465;Laerm;30489;48.982;8.394;2023-07-13T05:55:57;40.07;38.37;41.53;;
40465;Laerm;30489;48.982;8.394;2023-07-13T05:58:07;40.08;38.37;41.61;;
40465;Laerm;30489;48.982;8.394;2023-07-13T06:00:17;40.10;38.21;41.53;;
40465;Laerm;30489;48.982;8.394;2023-07-13T06:02:28;40.17;38.21;41.61;;
40465;Laerm;30489;48.982;8.394;2023-07-13T06:04:38;40.17;38.05;41.46;;
40465;Laerm;30489;48.982;8.394;2023-07-13T06:06:48;40.14;38.37;41.46;;
40465;Laerm;30489;48.982;8.394;2023-07-13T06:08:58;40.13;38.21;41.53;;
40465;Laerm;30489;48.982;8.394;2023-07-13T06:11:13;40.17;38.52;41.68;;
40465;Laerm;30489;48.982;8.394;2023-07-13T06:13:24;40.23;38.37;41.53;;
40465;Laerm;30489;48.982;8.394;2023-07-13T06:15:34;40.28;38.52;41.75;;
40465;Laerm;30489;48.982;8.394;2023-07-13T06:17:44;40.35;38.81;41.89;;
40465;Laerm;30489;48.982;8.394;2023-07-13T06:19:55;40.41;38.81;41.75;;
40465;Laerm;30489;48.982;8.394;2023-07-13T06:22:05;40.47;38.81;41.68;;
40465;Laerm;30489;48.982;8.394;2023-07-13T06:24:15;40.50;38.81;41.75;;
40465;Laerm;30489;48.982;8.394;2023-07-13T06:26:26;40.54;38.37;42.03;;
40465;Laerm;30489;48.982;8.394;2023-07-13T06:28:36;40.52;39.08;41.96;;
40465;Laerm;30489;48.982;8.394;2023-07-13T06:30:47;40.57;38.95;41.89;;
40465;Laerm;30489;48.982;8.394;2023-07-13T06:32:57;40.73;39.21;42.82;;
40465;Laerm;30489;48.982;8.394;2023-07-13T06:35:07;40.72;39.34;42.35;;
40465;Laerm;30489;48.982;8.394;2023-07-13T06:37:18;40.66;38.95;41.89;;
40465;Laerm;30489;48.982;8.394;2023-07-13T06:39:28;40.70;39.21;42.22;;
40465;Laerm;30489;48.982;8.394;2023-07-13T06:41:38;40.73;39.34;42.09;;
40465;Laerm;30489;48.982;8.394;2023-07-13T06:43:49;40.77;39.34;42.03;;
40465;Laerm;30489;48.982;8.394;2023-07-13T06:45:59;40.77;39.21;41.96;;
40465;Laerm;30489;48.982;8.394;2023-07-13T06:48:09;40.83;39.34;42.03;;
40465;Laerm;30489;48.982;8.394;2023-07-13T06:50:19;40.83;39.46;42.03;;
40465;Laerm;30489;48.982;8.394;2023-07-13T06:52:30;40.88;39.46;42.09;;
40465;Laerm;30489;48.982;8.394;2023-07-13T06:54:40;40.84;38.95;42.22;;
40465;Laerm;30489;48.982;8.394;2023-07-13T06:56:50;40.84;39.34;42.16;;
40465;Laerm;30489;48.982;8.394;2023-07-13T06:59:00;40.84;39.34;42.16;;
40465;Laerm;30489;48.982;8.394;2023-07-13T07:01:10;40.88;39.34;41.96;;
40465;Laerm;30489;48.982;8.394;2023-07-13T07:03:21;40.80;38.95;41.96;;
40465;Laerm;30489;48.982;8.394;2023-07-13T07:05:31;40.89;39.58;42.13;;
40465;Laerm;30489;48.982;8.394;2023-07-13T07:07:41;40.98;39.34;42.22;;
40465;Laerm;30489;48.982;8.394;2023-07-13T07:09:51;41.00;39.34;42.35;;
40465;Laerm;30489;48.982;8.394;2023-07-13T07:12:02;41.01;39.46;42.29;;
40465;Laerm;30489;48.982;8.394;2023-07-13T07:14:12;41.11;39.58;42.35;;
40465;Laerm;30489;48.982;8.394;2023-07-13T07:16:24;41.10;39.70;42.47;;
40465;Laerm;30489;48.982;8.394;2023-07-13T07:18:34;41.13;39.46;42.24;;
40465;Laerm;30489;48.982;8.394;2023-07-13T07:20:45;40.92;39.46;42.09;;
40465;Laerm;30489;48.982;8.394;2023-07-13T07:22:55;41.12;39.81;42.29;;
40465;Laerm;30489;48.982;8.394;2023-07-13T07:25:05;41.27;39.92;42.53;;
40465;Laerm;30489;48.982;8.394;2023-07-13T07:27:15;41.26;39.81;42.41;;
40465;Laerm;30489;48.982;8.394;2023-07-13T07:29:26;41.33;40.03;42.36;;
40465;Laerm;30489;48.982;8.394;2023-07-13T07:31:37;41.41;39.81;51.80;;
40465;Laerm;30489;48.982;8.394;2023-07-13T07:33:47;41.33;39.92;42.53;;
40465;Laerm;30489;48.982;8.394;2023-07-13T07:35:59;41.35;40.03;42.35;;
40465;Laerm;30489;48.982;8.394;2023-07-13T07:38:10;41.34;39.92;42.53;;
40465;Laerm;30489;48.982;8.394;2023-07-13T07:40:20;41.35;40.13;42.47;;
40465;Laerm;30489;48.982;8.394;2023-07-13T07:42:30;41.51;40.23;42.88;;
40465;Laerm;30489;48.982;8.394;2023-07-13T07:44:40;41.66;40.33;42.88;;
40465;Laerm;30489;48.982;8.394;2023-07-13T07:46:51;41.67;40.23;42.93;;
40465;Laerm;30489;48.982;8.394;2023-07-13T07:49:01;41.62;40.43;42.71;;
40465;Laerm;30489;48.982;8.394;2023-07-13T07:51:11;41.61;40.43;42.71;;
40465;Laerm;30489;48.982;8.394;2023-07-13T07:53:22;41.61;40.33;42.65;;
40465;Laerm;30489;48.982;8.394;2023-07-13T07:55:33;41.67;40.43;42.82;;
40465;Laerm;30489;48.982;8.394;2023-07-13T07:57:43;41.69;40.43;42.76;;
40465;Laerm;30489;48.982;8.394;2023-07-13T07:59:53;41.71;40.43;42.71;;
40465;Laerm;30489;48.982;8.394;2023-07-13T08:02:04;41.68;40.43;42.65;;
40465;Laerm;30489;48.982;8.394;2023-07-13T08:04:14;41.71;40.43;42.82;;
40465;Laerm;30489;48.982;8.394;2023-07-13T08:06:24;41.71;40.53;42.82;;
40465;Laerm;30489;48.982;8.394;2023-07-13T08:08:34;41.74;40.43;42.93;;
40465;Laerm;30489;48.982;8.394;2023-07-13T08:10:45;41.86;40.53;43.04;;
40465;Laerm;30489;48.982;8.394;2023-07-13T08:12:55;41.84;40.53;42.88;;
40465;Laerm;30489;48.982;8.394;2023-07-13T08:15:07;41.85;40.53;42.93;;
40465;Laerm;30489;48.982;8.394;2023-07-13T08:17:22;41.89;40.62;43.34;;
40465;Laerm;30489;48.982;8.394;2023-07-13T08:19:32;41.91;40.23;42.98;;
40465;Laerm;30489;48.982;8.394;2023-07-13T08:21:42;41.92;40.53;43.14;;
40465;Laerm;30489;48.982;8.394;2023-07-13T08:23:53;41.88;40.62;43.72;;
40465;Laerm;30489;48.982;8.394;2023-07-13T08:26:03;41.86;40.23;42.98;;
40465;Laerm;30489;48.982;8.394;2023-07-13T08:28:14;41.85;40.43;43.14;;
40465;Laerm;30489;48.982;8.394;2023-07-13T08:30:24;41.87;40.43;43.04;;
40465;Laerm;30489;48.982;8.394;2023-07-13T08:32:35;41.86;40.23;43.04;;
40465;Laerm;30489;48.982;8.394;2023-07-13T08:34:46;41.78;40.33;42.88;;
40465;Laerm;30489;48.982;8.394;2023-07-13T08:36:56;41.76;40.33;42.93;;
40465;Laerm;30489;48.982;8.394;2023-07-13T08:39:06;41.79;40.33;42.88;;
40465;Laerm;30489;48.982;8.394;2023-07-13T08:41:17;41.79;40.33;43.39;;
40465;Laerm;30489;48.982;8.394;2023-07-13T08:43:29;41.76;40.13;43.24;;
40465;Laerm;30489;48.982;8.394;2023-07-13T08:45:47;41.74;40.33;42.82;;
40465;Laerm;30489;48.982;8.394;2023-07-13T08:50:11;41.74;40.33;42.93;;
40465;Laerm;30489;48.982;8.394;2023-07-13T08:52:35;41.73;40.23;42.98;;
40465;Laerm;30489;48.982;8.394;2023-07-13T08:54:48;41.77;40.13;43.09;;
40465;Laerm;30489;48.982;8.394;2023-07-13T08:57:00;41.70;40.23;42.88;;
40465;Laerm;30489;48.982;8.394;2023-07-13T08:59:16;41.67;40.43;42.93;;
40465;Laerm;30489;48.982;8.394;2023-07-13T09:01:30;41.65;40.23;42.93;;
40465;Laerm;30489;48.982;8.394;2023-07-13T09:04:09;41.62;40.23;42.98;;
40465;Laerm;30489;48.982;8.394;2023-07-13T09:06:14;41.60;40.03;42.98;;
40465;Laerm;30489;48.982;8.394;2023-07-13T09:10:46;41.56;40.03;42.88;;
40465;Laerm;30489;48.982;8.394;2023-07-13T09:15:37;41.54;39.92;42.71;;
40465;Laerm;30489;48.982;8.394;2023-07-13T09:17:48;41.57;40.03;43.09;;
40465;Laerm;30489;48.982;8.394;2023-07-13T09:20:10;41.60;40.13;42.82;;
40465;Laerm;30489;48.982;8.394;2023-07-13T09:22:24;41.57;40.23;42.82;;
40465;Laerm;30489;48.982;8.394;2023-07-13T09:24:38;41.64;39.92;42.95;;
40465;Laerm;30489;48.982;8.394;2023-07-13T09:26:49;41.64;40.13;42.76;;
40465;Laerm;30489;48.982;8.394;2023-07-13T09:29:03;41.56;39.92;42.76;;
40465;Laerm;30489;48.982;8.394;2023-07-13T09:31:33;41.57;39.58;42.98;;
40465;Laerm;30489;48.982;8.394;2023-07-13T09:33:44;41.54;39.81;42.88;;
40465;Laerm;30489;48.982;8.394;2023-07-13T09:35:55;41.54;40.03;42.74;;
40465;Laerm;30489;48.982;8.394;2023-07-13T09:38:13;41.57;39.70;42.93;;
40465;Laerm;30489;48.982;8.394;2023-07-13T09:40:25;41.57;39.81;42.82;;
40465;Laerm;30489;48.982;8.394;2023-07-13T09:42:37;41.54;39.92;42.88;;
40465;Laerm;30489;48.982;8.394;2023-07-13T09:44:52;41.56;39.92;43.44;;
40465;Laerm;30489;48.982;8.394;2023-07-13T09:47:03;41.55;40.13;42.88;;
40465;Laerm;30489;48.982;8.394;2023-07-13T09:49:25;41.52;39.92;42.76;;
40465;Laerm;30489;48.982;8.394;2023-07-13T09:51:37;41.51;40.13;42.88;;
40465;Laerm;30489;48.982;8.394;2023-07-13T09:53:47;41.50;39.92;42.93;;
40465;Laerm;30489;48.982;8.394;2023-07-13T09:55:58;41.50;40.13;42.88;;
40465;Laerm;30489;48.982;8.394;2023-07-13T09:58:15;41.51;39.92;42.88;;
40465;Laerm;30489;48.982;8.394;2023-07-13T10:00:27;41.49;40.03;42.88;;
40465;Laerm;30489;48.982;8.394;2023-07-13T10:02:38;41.47;39.70;43.54;;
40465;Laerm;30489;48.982;8.394;2023-07-13T10:04:51;41.45;38.95;42.88;;
40465;Laerm;30489;48.982;8.394;2023-07-13T10:07:06;41.41;39.81;42.59;;
40465;Laerm;30489;48.982;8.394;2023-07-13T10:09:17;41.37;39.81;42.65;;
40465;Laerm;30489;48.982;8.394;2023-07-13T10:11:28;41.40;39.70;42.71;;
40465;Laerm;30489;48.982;8.394;2023-07-13T10:13:44;41.40;39.46;42.88;;
40465;Laerm;30489;48.982;8.394;2023-07-13T10:15:55;41.34;39.70;42.65;;
40465;Laerm;30489;48.982;8.394;2023-07-13T10:18:07;41.35;39.46;42.76;;
40465;Laerm;30489;48.982;8.394;2023-07-13T10:20:18;41.34;39.92;42.74;;
40465;Laerm;30489;48.982;8.394;2023-07-13T10:22:36;41.38;39.70;43.04;;
40465;Laerm;30489;48.982;8.394;2023-07-13T10:24:49;41.42;39.70;42.71;;
40465;Laerm;30489;48.982;8.394;2023-07-13T10:27:03;41.46;39.81;42.88;;
40465;Laerm;30489;48.982;8.394;2023-07-13T10:29:15;41.43;39.70;42.88;;
40465;Laerm;30489;48.982;8.394;2023-07-13T10:31:26;41.42;39.46;42.76;;
40465;Laerm;30489;48.982;8.394;2023-07-13T10:33:36;41.49;39.58;43.14;;
40465;Laerm;30489;48.982;8.394;2023-07-13T10:35:47;41.46;39.92;42.82;;
40465;Laerm;30489;48.982;8.394;2023-07-13T10:38:04;41.42;39.92;43.04;;
40465;Laerm;30489;48.982;8.394;2023-07-13T10:40:59;41.40;39.81;42.71;;
40465;Laerm;30489;48.982;8.394;2023-07-13T10:42:49;41.42;39.46;42.76;;
40465;Laerm;30489;48.982;8.394;2023-07-13T10:45:02;41.38;39.92;42.88;;
40465;Laerm;30489;48.982;8.394;2023-07-13T10:47:17;41.41;39.21;42.82;;
40465;Laerm;30489;48.982;8.394;2023-07-13T10:49:28;41.44;39.70;42.82;;
40465;Laerm;30489;48.982;8.394;2023-07-13T10:51:39;41.40;39.58;42.82;;
40465;Laerm;30489;48.982;8.394;2023-07-13T10:56:24;41.33;39.34;42.93;;
40465;Laerm;30489;48.982;8.394;2023-07-13T10:58:38;41.35;39.58;43.86;;
40465;Laerm;30489;48.982;8.394;2023-07-13T11:00:53;41.34;39.70;42.82;;
40465;Laerm;30489;48.982;8.394;2023-07-13T11:03:10;41.36;39.34;42.65;;
40465;Laerm;30489;48.982;8.394;2023-07-13T11:05:30;41.37;39.46;45.01;;
40465;Laerm;30489;48.982;8.394;2023-07-13T11:07:52;41.36;39.58;43.81;;
40465;Laerm;30489;48.982;8.394;2023-07-13T11:10:03;41.32;39.70;42.82;;
40465;Laerm;30489;48.982;8.394;2023-07-13T11:14:38;41.30;39.34;42.65;;
40465;Laerm;30489;48.982;8.394;2023-07-13T11:16:52;41.33;39.70;42.88;;
40465;Laerm;30489;48.982;8.394;2023-07-13T11:21:16;41.29;39.58;42.59;;
40465;Laerm;30489;48.982;8.394;2023-07-13T11:23:28;41.34;39.58;42.65;;
40465;Laerm;30489;48.982;8.394;2023-07-13T11:25:40;41.37;39.70;42.82;;
40465;Laerm;30489;48.982;8.394;2023-07-13T11:27:51;41.34;39.34;43.29;;
40465;Laerm;30489;48.982;8.394;2023-07-13T11:32:23;41.25;39.46;48.05;;
40465;Laerm;30489;48.982;8.394;2023-07-13T11:34:34;41.20;39.58;42.59;;
40465;Laerm;30489;48.982;8.394;2023-07-13T11:36:45;41.21;39.58;42.65;;
40465;Laerm;30489;48.982;8.394;2023-07-13T11:41:23;41.15;39.21;42.76;;
40465;Laerm;30489;48.982;8.394;2023-07-13T11:43:34;41.17;39.46;42.71;;
40465;Laerm;30489;48.982;8.394;2023-07-13T11:45:45;41.16;39.21;42.47;;
40465;Laerm;30489;48.982;8.394;2023-07-13T11:47:55;41.13;39.34;42.71;;
40465;Laerm;30489;48.982;8.394;2023-07-13T11:50:20;41.15;39.58;42.76;;
40465;Laerm;30489;48.982;8.394;2023-07-13T11:52:35;41.19;39.08;43.77;;
40465;Laerm;30489;48.982;8.394;2023-07-13T11:54:56;41.13;39.34;42.76;;
40465;Laerm;30489;48.982;8.394;2023-07-13T11:57:14;41.17;39.08;42.88;;
40465;Laerm;30489;48.982;8.394;2023-07-13T11:59:29;41.13;39.46;42.42;;
40465;Laerm;30489;48.982;8.394;2023-07-13T12:01:44;41.13;39.34;43.29;;
40465;Laerm;30489;48.982;8.394;2023-07-13T12:03:56;41.11;39.21;42.93;;
40465;Laerm;30489;48.982;8.394;2023-07-13T12:06:17;41.12;38.81;42.65;;
40465;Laerm;30489;48.982;8.394;2023-07-13T12:08:29;41.12;38.67;42.47;;
40465;Laerm;30489;48.982;8.394;2023-07-13T12:10:39;41.10;38.67;42.58;;
40465;Laerm;30489;48.982;8.394;2023-07-13T12:12:53;41.31;39.34;47.57;;
40465;Laerm;30489;48.982;8.394;2023-07-13T12:15:07;41.22;39.46;44.03;;
40465;Laerm;30489;48.982;8.394;2023-07-13T12:17:24;41.09;39.21;42.53;;
40465;Laerm;30489;48.982;8.394;2023-07-13T12:19:35;41.08;39.21;43.29;;
40465;Laerm;30489;48.982;8.394;2023-07-13T12:21:45;41.11;39.21;44.11;;
40465;Laerm;30489;48.982;8.394;2023-07-13T12:23:55;41.11;39.08;44.83;;
40465;Laerm;30489;48.982;8.394;2023-07-13T12:26:06;41.12;39.34;42.88;;
40465;Laerm;30489;48.982;8.394;2023-07-13T12:28:20;41.07;39.34;43.28;;
40465;Laerm;30489;48.982;8.394;2023-07-13T12:30:31;41.03;39.21;42.36;;
40465;Laerm;30489;48.982;8.394;2023-07-13T12:32:49;41.04;38.95;42.41;;
40465;Laerm;30489;48.982;8.394;2023-07-13T12:35:14;41.02;39.08;42.41;;
40465;Laerm;30489;48.982;8.394;2023-07-13T12:37:24;41.02;38.37;42.65;;
40465;Laerm;30489;48.982;8.394;2023-07-13T12:39:36;41.05;39.34;42.76;;